Time;durP1;ratioP1;P1;durP2;ratioP2;P2;SDS_P1;SDS_P2;PMS_P1;PMS_P2;Temp;Humidity;BMP_temperature;BMP_pressure;BME280_temperature;BME280_humidity;BME280_pressure;Samples;Min_cycle;Max_cycle;Signal;HPM_P1;HPM_P2
2021/01/19 00:01:25;;;;;;;24.63;12.97;;;7.40;99.90;;;7.52;82.79;101385.06;4789163;29;20526;-68
2021/01/19 00:03:53;;;;;;;20.23;11.17;;;7.30;99.90;;;7.44;82.09;101334.94;4805474;29;20053;-68
2021/01/19 00:06:21;;;;;;;21.47;10.63;;;7.40;99.90;;;7.41;82.68;101329.63;4805413;29;20043;-68
2021/01/19 00:08:49;;;;;;;23.93;12.10;;;7.30;99.90;;;6.97;82.34;101257.00;4805337;29;20430;-68
2021/01/19 00:11:16;;;;;;;28.97;13.23;;;7.30;99.90;;;7.46;82.17;101325.31;4805387;29;20086;-68
2021/01/19 00:13:43;;;;;;;29.93;13.13;;;7.30;99.90;;;7.43;81.82;101320.03;4804136;29;20055;-68
2021/01/19 00:16:11;;;;;;;24.00;12.43;;;7.30;99.90;;;7.49;81.40;101316.59;4789010;29;20143;-68
2021/01/19 00:18:38;;;;;;;26.53;12.70;;;7.40;99.90;;;7.51;81.43;101323.63;4805306;29;20107;-68
2021/01/19 00:21:06;;;;;;;19.17;11.70;;;7.40;99.90;;;7.57;81.27;101293.91;4805249;29;20054;-68
2021/01/19 00:23:34;;;;;;;26.40;12.43;;;7.40;99.90;;;7.56;81.01;101303.53;4803909;29;20058;-69
2021/01/19 00:26:02;;;;;;;20.63;11.60;;;7.40;99.90;;;7.54;81.16;101304.38;4805113;29;20050;-69
2021/01/19 00:28:29;;;;;;;22.70;11.20;;;7.40;99.90;;;7.51;81.37;101280.66;4805086;29;20051;-68
2021/01/19 00:30:56;;;;;;;28.87;13.07;;;7.40;99.90;;;7.58;80.89;101285.13;4803949;29;20066;-68
2021/01/19 00:33:25;;;;;;;21.93;10.63;;;7.40;99.90;;;7.54;80.79;101284.22;4805132;29;20055;-68
2021/01/19 00:35:52;;;;;;;22.37;10.93;;;7.40;99.90;;;7.59;80.79;101264.09;4804573;29;20058;-68
2021/01/19 00:38:20;;;;;;;21.53;10.77;;;7.40;99.90;;;7.46;80.64;101253.38;4788809;29;20055;-68
2021/01/19 00:40:48;;;;;;;23.00;9.47;;;7.40;99.90;;;7.49;80.82;101258.69;4803796;29;20054;-68
2021/01/19 00:43:16;;;;;;;24.17;9.60;;;7.40;99.90;;;7.48;80.97;101254.28;4804966;29;20058;-68
2021/01/19 00:45:43;;;;;;;22.73;9.80;;;7.30;99.90;;;7.52;80.48;101251.72;4804900;29;20050;-68
2021/01/19 00:48:11;;;;;;;21.80;9.87;;;7.30;99.90;;;7.39;80.46;101226.09;4803649;29;20055;-68
2021/01/19 00:50:38;;;;;;;18.73;8.47;;;7.30;99.90;;;7.45;80.34;101241.97;4805064;29;20039;-68
2021/01/19 00:53:06;;;;;;;23.27;9.67;;;7.30;99.90;;;7.45;80.91;101239.34;4804952;29;20047;-68
2021/01/19 00:55:33;;;;;;;26.57;9.20;;;7.30;99.90;;;7.44;80.25;101219.16;4788501;29;20062;-68
2021/01/19 00:58:04;;;;;;;23.85;9.20;;;7.30;99.90;;;7.42;80.96;101210.34;4805124;29;20061;-68
2021/01/19 01:00:36;;;;;;;23.63;10.13;;;7.30;99.90;;;7.55;80.73;101235.97;4803738;29;20397;-68
2021/01/19 01:03:04;;;;;;;23.23;9.53;;;7.40;99.90;;;7.49;81.00;101211.31;4788710;29;20058;-68
2021/01/19 01:05:31;;;;;;;20.40;10.00;;;7.30;99.90;;;7.37;81.54;101206.78;4804917;29;20051;-68
2021/01/19 01:08:01;;;;;;;23.60;10.73;;;7.20;99.90;;;7.30;82.70;101175.97;4804607;29;20059;-68
2021/01/19 01:10:29;;;;;;;19.33;10.18;;;7.20;99.90;;;7.17;83.53;101181.94;4803516;29;20058;-68
2021/01/19 01:12:56;;;;;;;24.87;9.77;;;7.10;99.90;;;7.14;84.45;101177.50;4804934;29;20054;-68
2021/01/19 01:15:32;;;;;;;19.57;9.50;;;7.00;99.90;;;7.01;84.77;101128.22;4804728;29;20458;-68
2021/01/19 01:17:59;;;;;;;25.80;9.70;;;7.00;99.90;;;7.15;85.00;101144.19;4804835;29;20083;-68
2021/01/19 01:20:27;;;;;;;23.57;8.97;;;7.00;99.90;;;7.14;85.41;101150.34;4803477;29;20073;-68
2021/01/19 01:22:55;;;;;;;25.43;9.77;;;7.00;99.90;;;6.85;85.07;101109.59;4804598;29;20047;-71
2021/01/19 01:25:22;;;;;;;19.87;8.63;;;7.00;99.90;;;6.97;85.30;101125.53;4804735;29;20443;-68
2021/01/19 01:27:50;;;;;;;19.33;8.60;;;6.90;99.90;;;7.05;85.55;101127.41;4803486;29;20130;-68
2021/01/19 01:30:19;;;;;;;22.20;8.63;;;6.90;99.90;;;7.04;85.70;101127.41;4804522;29;20055;-68
2021/01/19 01:32:50;;;;;;;15.10;8.80;;;6.90;99.90;;;7.09;85.37;101113.44;4804610;29;20055;-68
2021/01/19 01:35:21;;;;;;;19.70;9.33;;;6.90;99.90;;;7.09;85.65;101120.44;4804520;29;20065;-68
2021/01/19 01:37:51;;;;;;;19.10;8.88;;;6.90;99.90;;;6.97;85.66;101126.41;4804488;29;20112;-68
2021/01/19 01:40:21;;;;;;;19.25;9.43;;;6.90;99.90;;;7.01;85.80;101098.41;4788535;29;20084;-67
2021/01/19 01:42:50;;;;;;;;;;;6.90;99.90;;;6.97;86.19;101093.97;4804957;29;20505;-68
2021/01/19 01:45:21;;;;;;;21.73;9.17;;;6.90;99.90;;;6.93;86.15;101094.81;4804448;29;19929;-68
2021/01/19 01:47:51;;;;;;;19.97;9.90;;;6.80;99.90;;;6.91;86.34;101091.28;4806016;29;20050;-68
2021/01/19 01:50:19;;;;;;;23.05;10.35;;;6.80;99.90;;;6.87;86.36;101076.31;4807903;29;20120;-68
2021/01/19 01:52:47;;;;;;;20.97;9.77;;;6.70;99.90;;;6.84;86.15;101076.25;4806674;29;20521;-67
2021/01/19 01:55:16;;;;;;;26.90;10.50;;;6.70;99.90;;;6.83;86.16;101072.75;4807993;29;20056;-68
2021/01/19 01:57:44;;;;;;;21.87;9.87;;;6.70;99.90;;;6.79;86.37;101067.44;4791329;29;20145;-68
2021/01/19 02:00:14;;;;;;;21.13;9.10;;;6.70;99.90;;;6.67;86.55;101051.50;4791241;29;20062;-68
2021/01/19 02:02:54;;;;;;;28.27;10.45;;;6.60;99.90;;;6.44;87.12;101005.63;4808162;29;20138;-68
2021/01/19 02:05:22;;;;;;;24.40;10.40;;;6.60;99.90;;;6.64;87.13;101049.69;4807600;29;20063;-68
2021/01/19 02:08:19;;;;;;;19.77;10.23;;;6.50;99.90;;;6.65;87.24;101017.31;4807700;29;20059;-68
2021/01/19 02:10:59;;;;;;;24.13;11.00;;;6.50;99.90;;;6.60;87.73;101041.78;4807310;29;20109;-68
2021/01/19 02:13:38;;;;;;;25.30;11.50;;;6.50;99.90;;;6.61;87.92;101028.66;4807511;29;20051;-68
2021/01/19 02:16:23;;;;;;;22.60;9.77;;;6.50;99.90;;;6.70;87.82;101027.88;4807329;29;20116;-68
2021/01/19 02:19:24;;;;;;;20.50;10.17;;;6.50;99.90;;;6.70;87.75;100997.22;4807368;29;20128;-68
2021/01/19 02:22:10;;;;;;;23.47;10.13;;;6.60;99.90;;;6.69;88.15;101002.47;4807462;29;20054;-68
2021/01/19 02:24:46;;;;;;;25.07;11.43;;;6.60;99.90;;;6.67;88.23;100991.94;4791039;29;20082;-68
2021/01/19 02:27:41;;;;;;;28.57;11.93;;;6.60;99.90;;;6.58;88.37;100993.56;4807193;29;20055;-68
2021/01/19 02:30:19;;;;;;;26.37;11.53;;;6.50;99.90;;;6.62;88.76;100976.97;4807214;29;20054;-68
2021/01/19 02:33:09;;;;;;;25.83;11.83;;;6.50;99.90;;;6.61;89.22;100967.31;4807116;29;20125;-68
2021/01/19 02:35:49;;;;;;;23.53;12.03;;;6.50;99.90;;;6.47;89.69;100955.72;4806944;29;20078;-68
2021/01/19 02:38:30;;;;;;;25.02;12.30;;;6.40;99.90;;;6.47;90.37;100943.50;4807020;29;20107;-68
2021/01/19 02:40:59;;;;;;;17.93;12.70;;;6.40;99.90;;;6.48;90.42;100923.38;4806915;29;20055;-68
2021/01/19 02:43:29;;;;;;;23.93;13.37;;;6.40;99.90;;;6.52;90.63;100928.69;4806961;29;20057;-68
2021/01/19 02:45:57;;;;;;;23.70;13.67;;;6.40;99.90;;;5.71;90.59;100786.63;4806697;29;20051;-69
2021/01/19 02:48:26;;;;;;;22.47;14.07;;;6.40;99.90;;;6.50;91.03;100898.00;4806757;29;20047;-68
2021/01/19 02:50:54;;;;;;;26.37;13.00;;;6.40;99.90;;;6.54;91.15;100902.41;4806782;29;20444;-68
2021/01/19 02:53:22;;;;;;;22.23;14.70;;;6.40;99.90;;;6.44;91.24;100890.91;4805539;29;20082;-68
2021/01/19 02:55:52;;;;;;;23.83;14.03;;;6.40;99.90;;;6.48;91.45;100894.47;4806607;29;20139;-68
2021/01/19 02:58:38;;;;;;;22.30;14.13;;;6.40;99.90;;;6.56;91.43;100885.81;4806281;29;20069;-68
2021/01/19 03:01:07;;;;;;;25.47;15.67;;;6.40;99.90;;;6.54;91.50;100881.41;4790485;29;20055;-68
2021/01/19 03:03:38;;;;;;;23.37;15.43;;;6.50;99.90;;;6.53;91.43;100864.75;4806542;29;20107;-68
2021/01/19 03:06:13;;;;;;;21.60;15.00;;;6.50;99.90;;;6.52;91.82;100883.13;4806489;29;20086;-68
2021/01/19 03:08:43;;;;;;;25.57;15.90;;;6.40;99.90;;;6.49;91.94;100859.44;4806443;29;20061;-68
2021/01/19 03:11:16;;;;;;;29.92;16.80;;;6.40;99.90;;;6.50;92.17;100875.25;4806409;29;20062;-68
2021/01/19 03:13:44;;;;;;;30.70;16.30;;;6.40;99.90;;;6.53;92.15;100869.13;4806569;29;20055;-68
2021/01/19 03:16:14;;;;;;;28.87;16.40;;;6.40;99.90;;;6.52;92.31;100863.00;4806452;29;20062;-68
2021/01/19 03:18:44;;;;;;;23.67;16.07;;;6.40;99.90;;;6.43;92.50;100825.25;4806254;29;20055;-68
2021/01/19 03:21:12;;;;;;;30.85;17.95;;;6.40;99.90;;;6.54;92.19;100820.97;4806232;29;20129;-68
2021/01/19 03:23:40;;;;;;;26.73;17.60;;;6.40;99.90;;;6.52;92.70;100830.59;4789840;29;20069;-68
2021/01/19 03:26:09;;;;;;;27.43;17.33;;;6.40;99.90;;;5.97;92.82;100735.41;4806030;29;20058;-68
2021/01/19 03:28:36;;;;;;;24.87;17.83;;;6.40;99.90;;;6.31;92.85;100824.22;4789828;29;20055;-68
2021/01/19 03:31:05;;;;;;;32.77;18.37;;;6.40;99.90;;;6.54;92.86;100802.59;4806226;29;20135;-68
2021/01/19 03:33:33;;;;;;;23.23;17.43;;;6.40;99.90;;;6.55;92.81;100794.72;4806040;29;20082;-68
2021/01/19 03:36:02;;;;;;;31.13;18.47;;;6.40;99.90;;;6.56;92.88;100800.84;4804684;29;20058;-68
2021/01/19 03:38:29;;;;;;;30.33;18.30;;;6.40;99.90;;;6.53;92.91;100806.06;4804592;29;20055;-68
2021/01/19 03:40:57;;;;;;;26.77;17.80;;;6.40;99.90;;;6.58;93.17;100793.88;4806038;29;20418;-68
2021/01/19 03:43:24;;;;;;;26.20;18.57;;;6.50;99.90;;;6.61;93.08;100779.00;4805840;29;20051;-68
2021/01/19 03:45:51;;;;;;;25.50;19.53;;;6.50;99.90;;;6.44;93.27;100766.56;4805676;29;20260;-68
2021/01/19 03:48:19;;;;;;;27.97;18.83;;;6.50;99.90;;;6.58;93.50;100778.09;4789531;29;20153;-68
2021/01/19 03:50:47;;;;;;;24.63;19.03;;;6.50;99.90;;;6.44;93.53;100740.28;4805685;29;20058;-68
2021/01/19 03:53:15;;;;;;;29.70;19.80;;;6.50;99.90;;;6.61;93.59;100768.50;4805717;29;20486;-68
2021/01/19 03:55:43;;;;;;;29.93;20.90;;;6.50;99.90;;;6.12;93.92;100684.81;4805802;29;20078;-68
2021/01/19 03:58:10;;;;;;;27.57;19.83;;;6.50;99.90;;;6.69;94.20;100769.47;4806012;29;20054;-69
2021/01/19 04:00:37;;;;;;;26.03;19.50;;;6.50;99.90;;;6.73;94.00;100749.34;4805438;29;20062;-69
2021/01/19 04:03:05;;;;;;;30.50;19.70;;;6.60;99.90;;;6.13;93.87;100642.84;4789228;29;20570;-69
2021/01/19 04:05:33;;;;;;;29.97;19.50;;;6.60;99.90;;;6.77;93.89;100745.88;4805279;29;20062;-69
2021/01/19 04:08:00;;;;;;;27.67;19.83;;;6.60;99.90;;;6.69;93.97;100723.91;4805243;29;20525;-69
2021/01/19 04:10:28;;;;;;;30.67;20.03;;;6.60;99.90;;;6.68;94.52;100746.66;4789131;29;20051;-69
2021/01/19 04:12:56;;;;;;;23.50;18.63;;;6.60;99.90;;;6.75;94.49;100716.97;4804200;29;20051;-69
2021/01/19 04:15:25;;;;;;;26.13;18.87;;;6.60;99.90;;;6.79;94.50;100725.75;4805256;29;20108;-69
2021/01/19 04:17:52;;;;;;;25.80;19.57;;;6.70;99.90;;;6.66;94.42;100695.84;4805216;29;20518;-69
2021/01/19 04:20:20;;;;;;;25.33;19.00;;;6.70;99.90;;;6.79;94.42;100678.44;4805281;29;20508;-70
2021/01/19 04:22:47;;;;;;;26.17;19.83;;;6.70;99.90;;;6.78;94.34;100690.69;4804203;29;20058;-69
2021/01/19 04:25:14;;;;;;;24.17;18.33;;;6.70;99.90;;;6.84;94.50;100698.63;4805105;29;20104;-69
2021/01/19 04:27:43;;;;;;;25.47;19.60;;;6.70;99.90;;;6.36;94.73;100593.13;4805196;29;20399;-69
2021/01/19 04:30:11;;;;;;;26.33;18.63;;;6.70;99.90;;;6.83;94.74;100694.22;4805089;29;20780;-69
2021/01/19 04:32:39;;;;;;;26.07;19.00;;;6.70;99.90;;;6.86;94.95;100693.38;4804993;29;20057;-69
2021/01/19 04:35:07;;;;;;;28.83;18.63;;;6.70;99.90;;;6.84;95.09;100682.84;4804993;29;20051;-69
2021/01/19 04:37:35;;;;;;;32.77;19.07;;;6.70;99.90;;;6.87;95.07;100689.88;4803865;29;20050;-69
2021/01/19 04:40:04;;;;;;;30.10;18.17;;;6.70;99.90;;;6.86;95.07;100677.59;4805229;29;20130;-70
2021/01/19 04:42:35;;;;;;;31.00;19.80;;;6.70;99.90;;;6.92;95.62;100667.13;4805158;29;20154;-70
2021/01/19 04:45:05;;;;;;;25.90;19.03;;;6.80;99.90;;;6.96;95.26;100653.13;4804838;29;20131;-70
2021/01/19 04:47:33;;;;;;;30.48;19.42;;;6.80;99.90;;;6.95;95.24;100627.72;4788992;29;20054;-70
2021/01/19 04:50:05;;;;;;;28.33;17.77;;;6.90;99.90;;;7.00;95.23;100632.16;4805182;29;20103;-70
2021/01/19 04:52:34;;;;;;;29.27;19.00;;;6.90;99.90;;;7.06;94.95;100650.59;4805063;29;20059;-70
2021/01/19 04:55:08;;;;;;;26.23;18.87;;;6.90;99.90;;;6.70;94.80;100624.03;4804926;29;20051;-70
2021/01/19 04:57:38;;;;;;;26.90;18.30;;;6.90;99.90;;;7.05;95.23;100603.22;4804913;29;20046;-70
2021/01/19 05:00:12;;;;;;;27.98;19.10;;;6.90;99.90;;;7.12;95.23;100613.78;4805051;29;20051;-70
2021/01/19 05:03:13;;;;;;;24.87;17.83;;;7.00;99.90;;;7.08;94.90;100590.13;4804969;29;20085;-70
2021/01/19 05:06:02;;;;;;;30.13;18.97;;;7.00;99.90;;;7.14;95.14;100591.00;4804734;29;20558;-70
2021/01/19 05:08:56;;;;;;;25.73;17.03;;;7.00;99.90;;;7.14;95.05;100587.53;4804632;29;20062;-70
2021/01/19 05:11:29;;;;;;;27.37;17.70;;;7.00;99.90;;;7.09;94.88;100565.56;4804932;29;20050;-71
2021/01/19 05:14:01;;;;;;;28.20;17.93;;;7.10;99.90;;;7.07;95.01;100559.41;4804816;29;20054;-70
2021/01/19 05:16:33;;;;;;;25.50;17.50;;;7.00;99.90;;;7.05;94.97;100548.00;4804674;29;20475;-70
2021/01/19 05:19:03;;;;;;;25.20;17.30;;;7.00;99.90;;;7.08;95.32;100537.53;4804828;29;20502;-71
2021/01/19 05:21:33;;;;;;;22.88;17.55;;;7.00;99.90;;;7.00;95.37;100487.53;4804793;29;20055;-71
2021/01/19 05:24:00;;;;;;;26.83;17.50;;;7.00;99.90;;;7.13;95.18;100514.75;4808068;29;20130;-71
2021/01/19 05:26:28;;;;;;;22.40;17.30;;;7.10;99.90;;;6.96;95.50;100484.88;4808125;29;20339;-71
2021/01/19 05:28:55;;;;;;;28.83;19.17;;;7.10;99.90;;;7.22;95.31;100498.97;4791676;29;20057;-71
2021/01/19 05:31:28;;;;;;;27.43;19.93;;;7.10;99.90;;;7.22;95.07;100514.75;4806967;29;20054;-71
2021/01/19 05:34:11;;;;;;;25.23;17.80;;;7.10;99.90;;;7.13;95.63;100464.78;4807854;29;20451;-71
2021/01/19 05:36:43;;;;;;;23.17;16.57;;;7.20;99.90;;;7.08;95.00;100446.34;4807904;29;20051;-71
2021/01/19 05:39:15;;;;;;;24.03;16.30;;;7.20;99.90;;;6.55;95.39;100349.81;4808046;29;20054;-71
2021/01/19 05:41:45;;;;;;;25.60;16.27;;;7.20;99.90;;;7.25;95.24;100449.91;4808020;29;20062;-71
2021/01/19 05:44:19;;;;;;;23.00;15.80;;;7.10;99.90;;;7.34;95.53;100441.16;4807798;29;20512;-71
2021/01/19 05:46:51;;;;;;;23.75;15.02;;;7.20;99.90;;;7.33;95.33;100442.03;4807934;29;20340;-71
2021/01/19 05:49:22;;;;;;;18.47;14.03;;;7.20;99.90;;;7.31;95.26;100430.63;4807913;29;20058;-71
2021/01/19 05:51:58;;;;;;;18.43;14.87;;;7.20;99.90;;;6.76;95.43;100334.13;4807733;29;20055;-71
2021/01/19 05:54:29;;;;;;;17.90;14.10;;;7.20;99.90;;;7.30;95.75;100392.94;4791539;29;20055;-71
2021/01/19 05:57:07;;;;;;;;;;;7.20;99.90;;;7.31;95.83;100404.34;4808161;29;20063;-71
2021/01/19 05:59:39;;;;;;;20.33;14.33;;;7.20;99.90;;;7.33;95.55;100389.44;4806482;29;20345;-71
2021/01/19 06:02:09;;;;;;;18.30;15.00;;;7.20;99.90;;;7.33;95.95;100381.53;4807499;29;20062;-70
2021/01/19 06:04:42;;;;;;;;;;;7.20;99.90;;;7.29;95.62;100388.56;4807929;29;20050;-71
2021/01/19 06:07:12;;;;;;;19.93;14.70;;;7.30;99.90;;;7.30;96.05;100374.50;4807267;29;19993;-70
2021/01/19 06:09:43;;;;;;;20.50;14.68;;;7.30;99.90;;;7.45;95.83;100363.13;4807457;29;20066;-72
2021/01/19 06:12:11;;;;;;;18.07;14.57;;;7.30;99.90;;;7.48;95.87;100376.28;4807444;29;20068;-70
2021/01/19 06:14:40;;;;;;;17.10;13.63;;;7.40;99.90;;;7.18;95.76;100306.13;4807360;29;20051;-71
2021/01/19 06:17:13;;;;;;;18.77;13.70;;;7.40;99.90;;;6.91;95.74;100223.75;4791313;29;20467;-70
2021/01/19 06:19:43;;;;;;;21.30;13.63;;;7.40;99.90;;;7.52;95.86;100333.31;4807265;29;20111;-70
2021/01/19 06:22:15;;;;;;;19.92;13.93;;;7.40;99.90;;;7.59;96.03;100342.94;4807519;29;20062;-70
2021/01/19 06:24:44;;;;;;;19.50;14.07;;;7.40;99.90;;;7.61;95.80;100317.50;4807250;29;20070;-70
2021/01/19 06:27:24;;;;;;;18.57;13.30;;;7.50;99.90;;;7.55;96.03;100330.66;4807130;29;20050;-70
2021/01/19 06:30:08;;;;;;;20.48;12.60;;;7.40;99.90;;;7.53;96.29;100314.00;4807186;29;20066;-70
2021/01/19 06:32:38;;;;;;;16.50;12.57;;;7.40;99.90;;;7.58;96.29;100309.63;4807166;29;20121;-71
2021/01/19 06:35:12;;;;;;;15.70;12.50;;;7.50;99.90;;;6.88;96.41;100176.44;4805971;29;20080;-70
2021/01/19 06:37:41;;;;;;;21.27;11.18;;;7.50;99.90;;;7.59;96.78;100319.25;4806913;29;20501;-71
2021/01/19 06:40:10;;;;;;;13.47;10.87;;;7.50;99.90;;;7.61;96.66;100282.41;4806934;29;20058;-70
2021/01/19 06:42:40;;;;;;;17.65;11.48;;;7.50;99.90;;;7.62;96.88;100306.09;4807365;29;20057;-70
2021/01/19 06:45:10;;;;;;;18.95;10.77;;;7.50;99.90;;;7.69;97.04;100302.56;4806992;29;20142;-70
2021/01/19 06:47:48;;;;;;;21.70;11.53;;;7.50;99.90;;;7.60;97.17;100305.22;4805580;29;20051;-71
2021/01/19 06:50:19;;;;;;;20.90;11.00;;;7.50;99.90;;;7.65;97.53;100292.94;4806899;29;20100;-71
2021/01/19 06:53:15;;;;;;;19.40;10.17;;;7.60;99.90;;;7.76;97.73;100275.34;4806811;29;20058;-70
2021/01/19 06:56:01;;;;;;;17.10;9.82;;;7.60;99.90;;;7.59;97.46;100264.00;4806760;29;20054;-70
2021/01/19 06:58:47;;;;;;;13.83;9.40;;;7.60;99.90;;;7.79;97.80;100241.13;4806658;29;20059;-70
2021/01/19 07:01:17;;;;;;;13.97;8.43;;;7.70;99.90;;;7.78;97.71;100257.78;4806769;29;20506;-73
2021/01/19 07:03:46;;;;;;;9.60;7.97;;;7.70;99.90;;;7.87;97.95;100251.63;4805664;29;20066;-73
2021/01/19 07:06:16;;;;;;;12.40;7.75;;;7.70;99.90;;;7.91;98.47;100232.31;4806607;29;20046;-72
2021/01/19 07:09:34;;;;;;;13.57;8.88;;;7.80;99.90;;;7.98;98.33;100242.81;4806481;29;20062;-71
2021/01/19 07:12:09;;;;;;;11.13;7.40;;;7.80;99.90;;;7.90;98.16;100227.91;4806530;29;20055;-71
2021/01/19 07:14:58;;;;;;;10.88;7.38;;;7.90;99.90;;;8.10;97.85;100244.50;4790273;29;20058;-73
2021/01/19 07:18:02;;;;;;;12.63;7.55;;;8.00;99.90;;;8.11;97.94;100248.88;4806412;29;20057;-71
2021/01/19 07:20:32;;;;;;;10.02;7.63;;;8.00;99.90;;;8.11;98.16;100288.38;4790270;29;20043;-71
2021/01/19 07:23:02;;;;;;;11.65;8.05;;;8.00;99.90;;;8.08;98.09;100249.78;4806513;29;20063;-71
2021/01/19 07:25:29;;;;;;;15.13;7.33;;;8.00;99.90;;;8.14;98.24;100244.50;4806314;29;20066;-72
2021/01/19 07:27:57;;;;;;;13.27;7.72;;;8.00;99.90;;;8.20;98.32;100219.88;4806334;29;20726;-72
2021/01/19 07:30:25;;;;;;;14.17;7.47;;;8.10;99.90;;;8.23;98.43;100248.84;4804809;29;20460;-71
2021/01/19 07:32:55;;;;;;;10.07;7.93;;;8.10;99.90;;;8.24;98.12;100229.53;4806311;29;20426;-72
2021/01/19 07:35:25;;;;;;;11.43;7.60;;;8.10;99.90;;;8.20;98.48;100235.69;4806133;29;20058;-72
2021/01/19 07:38:08;;;;;;;13.15;8.65;;;8.10;99.90;;;8.25;98.96;100233.03;4805925;29;20050;-71
2021/01/19 07:40:45;;;;;;;10.95;7.63;;;8.10;99.90;;;8.23;98.81;100223.38;4806020;29;20054;-71
2021/01/19 07:43:17;;;;;;;10.63;7.30;;;8.10;99.90;;;8.16;99.13;100226.94;4789685;29;20097;-71
2021/01/19 07:45:53;;;;;;;12.57;6.80;;;8.20;99.90;;;8.33;99.41;100237.41;4804227;29;20062;-71
2021/01/19 07:48:30;;;;;;;13.32;7.13;;;8.20;99.90;;;8.34;99.33;100238.28;4804674;29;20063;-71
2021/01/19 07:51:11;;;;;;;16.98;7.65;;;8.20;99.90;;;8.42;99.63;100237.34;4804659;29;20073;-71
2021/01/19 07:53:48;;;;;;;14.10;7.07;;;8.30;99.90;;;8.38;99.54;100211.88;4805735;29;20050;-71
2021/01/19 07:56:24;;;;;;;11.38;6.97;;;8.30;99.90;;;8.49;99.87;100231.16;4805791;29;20055;-71
2021/01/19 07:58:52;;;;;;;16.55;6.97;;;8.40;99.90;;;8.51;99.66;100220.59;4805592;29;20054;-70
2021/01/19 08:01:25;;;;;;;14.15;7.45;;;8.40;99.90;;;8.57;99.95;100229.38;4805473;29;20086;-70
2021/01/19 08:03:53;;;;;;;13.48;7.15;;;8.40;99.90;;;8.62;99.96;100238.09;4804480;29;20059;-71
2021/01/19 08:06:32;;;;;;;13.48;7.30;;;8.50;99.90;;;8.63;100.00;100247.75;4805245;29;20047;-71
2021/01/19 08:09:11;;;;;;;12.02;7.75;;;8.50;99.90;;;8.65;100.00;100230.16;4805493;29;20058;-70
2021/01/19 08:11:39;;;;;;;13.68;6.55;;;8.50;99.90;;;8.73;99.98;100233.63;4805622;29;20093;-71
2021/01/19 08:14:15;;;;;;;17.10;7.95;;;8.60;99.90;;;8.75;100.00;100217.81;4805557;29;20158;-71
2021/01/19 08:16:48;;;;;;;18.65;7.95;;;8.60;99.90;;;8.75;100.00;100236.28;4788986;29;20154;-70
2021/01/19 08:19:17;;;;;;;15.38;8.02;;;8.60;99.90;;;8.53;100.00;100189.84;4804130;29;20061;-70
2021/01/19 08:21:50;;;;;;;10.98;8.13;;;8.60;99.90;;;8.83;100.00;100206.31;4805315;29;20050;-70
2021/01/19 08:24:21;;;;;;;14.95;7.63;;;8.70;99.90;;;8.86;100.00;100224.75;4805346;29;20051;-71
2021/01/19 08:26:49;;;;;;;17.20;8.93;;;8.70;99.90;;;8.88;100.00;100233.50;4804050;29;20429;-70
2021/01/19 08:29:30;;;;;;;13.52;8.65;;;8.80;99.90;;;8.47;100.00;100153.00;4805456;29;20055;-70
2021/01/19 08:31:59;;;;;;;14.95;8.27;;;8.80;99.90;;;8.95;100.00;100218.50;4788901;29;20051;-70
2021/01/19 08:34:30;;;;;;;13.38;9.18;;;8.80;99.90;;;8.94;100.00;100212.34;4803740;29;20639;-70
2021/01/19 08:37:00;;;;;;;13.90;8.50;;;8.90;99.90;;;8.98;100.00;100226.41;4805160;29;20154;-70
2021/01/19 08:39:30;;;;;;;15.68;9.15;;;8.90;99.90;;;9.09;100.00;100243.91;4805056;29;20050;-70
2021/01/19 08:41:58;;;;;;;16.02;9.32;;;8.90;99.90;;;9.13;100.00;100236.81;4805137;29;20046;-70
2021/01/19 08:44:34;;;;;;;16.85;9.52;;;9.00;99.90;;;9.21;100.00;100248.19;4788726;29;20142;-71
2021/01/19 08:47:02;;;;;;;14.93;9.68;;;9.10;99.90;;;9.11;100.00;100241.25;4788609;29;20057;-69
2021/01/19 08:49:35;;;;;;;17.17;9.82;;;9.10;99.90;;;9.29;100.00;100238.41;4788854;29;20838;-69
2021/01/19 08:52:03;;;;;;;17.05;8.57;;;9.20;99.90;;;9.39;100.00;100241.88;4805112;29;20067;-70
2021/01/19 08:54:32;;;;;;;16.52;7.63;;;9.20;99.90;;;9.39;100.00;100248.00;4804811;29;20520;-70
2021/01/19 08:56:59;;;;;;;14.82;7.13;;;9.30;99.90;;;9.49;100.00;100227.66;4805395;29;20078;-70
2021/01/19 08:59:50;;;;;;;17.73;7.07;;;9.40;99.90;;;9.60;100.00;100226.66;4808620;29;20051;-69
2021/01/19 09:02:18;;;;;;;14.48;6.82;;;9.50;99.90;;;9.09;100.00;100163.88;4808775;29;20063;-69
2021/01/19 09:04:46;;;;;;;20.02;8.68;;;9.50;99.90;;;9.63;100.00;100239.84;4808532;29;20488;-69
2021/01/19 09:07:14;;;;;;;34.13;9.80;;;9.50;99.90;;;9.65;100.00;100245.97;4807085;29;20071;-70
2021/01/19 09:09:47;;;;;;;33.22;9.52;;;9.50;99.90;;;9.74;100.00;100224.75;4808421;29;20061;-69
2021/01/19 09:12:20;;;;;;;28.67;8.82;;;9.60;99.90;;;9.85;100.00;100254.53;4792000;29;20070;-69
2021/01/19 09:14:51;;;;;;;39.65;9.82;;;9.70;99.90;;;9.90;100.00;100265.06;4808549;29;20146;-70
2021/01/19 09:17:25;;;;;;;33.35;9.30;;;9.80;99.90;;;9.95;100.00;100256.19;4808383;29;20051;-68
2021/01/19 09:20:06;;;;;;;28.88;9.57;;;9.80;99.90;;;9.96;100.00;100275.56;4808433;29;20050;-70
2021/01/19 09:22:35;;;;;;;37.53;9.38;;;9.80;99.90;;;9.98;100.00;100247.38;4808204;29;20065;-69
2021/01/19 09:25:05;;;;;;;39.30;9.52;;;9.90;99.90;;;10.00;100.00;100256.16;4792044;29;20784;-68
2021/01/19 09:27:32;;;;;;;32.45;8.60;;;9.90;99.90;;;10.02;100.00;100259.66;4808027;29;20039;-69
2021/01/19 09:30:07;;;;;;;35.85;8.95;;;9.90;99.90;;;10.06;100.00;100264.00;4808020;29;20123;-68
2021/01/19 09:32:38;;;;;;;42.33;8.98;;;9.90;99.90;;;9.86;100.00;100192.91;4808412;29;20061;-69
2021/01/19 09:35:09;;;;;;;43.70;10.45;;;9.90;99.90;;;9.41;100.00;100137.13;4807959;29;20112;-69
2021/01/19 09:37:37;;;;;;;;;;;9.90;99.90;;;10.10;100.00;100260.47;4808438;29;20051;-69
2021/01/19 09:40:07;;;;;;;39.80;9.60;;;10.00;99.90;;;10.07;100.00;100249.00;4807932;29;19932;-69
2021/01/19 09:42:37;;;;;;;;;;;9.90;99.90;;;10.09;100.00;100260.44;4808505;29;20069;-69
2021/01/19 09:45:08;;;;;;;51.47;9.98;;;10.00;99.90;;;10.15;100.00;100279.75;4807900;29;19924;-69
2021/01/19 09:47:37;;;;;;;45.63;9.48;;;10.00;99.90;;;10.17;100.00;100245.38;4807621;29;20046;-69
2021/01/19 09:50:08;;;;;;;51.30;9.70;;;10.10;99.90;;;10.22;100.00;100265.56;4807786;29;20046;-69
2021/01/19 09:52:37;;;;;;;46.15;9.75;;;10.10;99.90;;;10.25;100.00;100268.19;4807698;29;20063;-69
2021/01/19 09:55:14;;;;;;;38.50;9.10;;;10.10;99.90;;;10.19;100.00;100243.59;4807814;29;20062;-69
2021/01/19 09:57:42;;;;;;;50.28;10.88;;;10.10;99.90;;;10.20;100.00;100277.06;4791326;29;20059;-69
2021/01/19 10:00:12;;;;;;;54.78;10.65;;;10.10;99.90;;;10.22;100.00;100296.44;4807486;29;20058;-69
2021/01/19 10:02:40;;;;;;;61.28;10.82;;;10.10;99.90;;;10.23;100.00;100293.75;4807797;29;20054;-69
2021/01/19 10:05:09;;;;;;;50.00;11.13;;;10.10;99.90;;;10.21;100.00;100295.56;4807621;29;20047;-69
2021/01/19 10:07:36;;;;;;;50.45;10.25;;;10.10;99.90;;;10.22;100.00;100283.22;4807239;29;20058;-69
2021/01/19 10:10:14;;;;;;;45.45;9.88;;;10.10;99.90;;;10.28;100.00;100302.50;4806262;29;20054;-69
2021/01/19 10:12:43;;;;;;;36.50;8.77;;;10.10;99.90;;;10.22;100.00;100296.44;4807523;29;20172;-69
2021/01/19 10:15:13;;;;;;;36.60;9.68;;;10.10;99.90;;;10.13;100.00;100275.38;4806331;29;20145;-69
2021/01/19 10:17:41;;;;;;;40.55;8.82;;;10.10;99.90;;;10.27;100.00;100292.84;4807394;29;20055;-69
2021/01/19 10:20:13;;;;;;;34.45;8.25;;;10.10;99.90;;;10.31;100.00;100310.41;4807388;29;20200;-69
2021/01/19 10:22:42;;;;;;;42.17;8.65;;;10.20;99.90;;;10.21;100.00;100284.09;4807090;29;20043;-69
2021/01/19 10:25:13;;;;;;;38.60;8.70;;;10.20;99.90;;;10.34;100.00;100323.56;4807113;29;20057;-69
2021/01/19 10:27:43;;;;;;;42.80;9.82;;;10.20;99.90;;;10.48;100.00;100310.19;4806033;29;20107;-69
2021/01/19 10:30:13;;;;;;;43.20;9.95;;;10.30;99.90;;;10.43;100.00;100304.09;4807144;29;20573;-69
2021/01/19 10:32:50;;;;;;;42.80;10.37;;;10.30;99.90;;;10.38;100.00;100301.50;4807139;29;20077;-69